Time;durP1;ratioP1;P1;durP2;ratioP2;P2;SDS_P1;SDS_P2;PMS_P1;PMS_P2;Temp;Humidity;BMP_temperature;BMP_pressure;BME280_temperature;BME280_humidity;BME280_pressure;Samples;Min_cycle;Max_cycle;Signal;HPM_P1;HPM_P2
2021/01/08 00:00:59;;;;;;;13.68;10.90;;;6.20;96.70;;;;;;5072795;28;20171;-71
2021/01/08 00:03:27;;;;;;;14.73;9.52;;;6.20;96.70;;;;;;5060127;28;20028;-71
2021/01/08 00:05:55;;;;;;;13.77;9.13;;;6.10;96.70;;;;;;5062367;28;20543;-72
2021/01/08 00:08:22;;;;;;;14.70;9.55;;;6.10;96.70;;;;;;5055597;28;20032;-71
2021/01/08 00:10:50;;;;;;;14.20;9.05;;;6.10;96.70;;;;;;5060840;28;20067;-71
2021/01/08 00:13:17;;;;;;;13.00;8.85;;;6.00;96.70;;;;;;5057411;28;20040;-71
2021/01/08 00:15:44;;;;;;;12.57;8.90;;;6.00;96.70;;;;;;5060098;28;20123;-72
2021/01/08 00:18:12;;;;;;;13.98;9.65;;;6.00;96.70;;;;;;5058318;28;20044;-71
2021/01/08 00:20:44;;;;;;;12.98;8.80;;;6.00;96.70;;;;;;5041951;28;20044;-72
2021/01/08 00:23:12;;;;;;;11.68;8.90;;;6.00;96.70;;;;;;5057856;28;20394;-71
2021/01/08 00:25:40;;;;;;;14.10;8.68;;;6.00;96.70;;;;;;5062571;28;20079;-73
2021/01/08 00:28:07;;;;;;;12.10;8.50;;;6.00;96.70;;;;;;5055191;28;20044;-71
2021/01/08 00:30:35;;;;;;;11.82;8.63;;;6.00;96.70;;;;;;5060763;28;20103;-72
2021/01/08 00:33:02;;;;;;;13.85;9.35;;;6.00;96.70;;;;;;5060707;28;20434;-71
2021/01/08 00:35:30;;;;;;;13.32;9.07;;;6.10;96.70;;;;;;5062866;28;20048;-71
2021/01/08 00:37:57;;;;;;;11.80;9.05;;;6.10;96.70;;;;;;5059208;28;20060;-72
2021/01/08 00:40:25;;;;;;;14.02;9.15;;;6.10;96.70;;;;;;5059200;28;20106;-71
2021/01/08 00:42:52;;;;;;;12.13;9.48;;;6.10;96.70;;;;;;5056419;28;20037;-71
2021/01/08 00:45:20;;;;;;;14.07;9.80;;;6.10;96.70;;;;;;5061182;28;21405;-71
2021/01/08 00:47:47;;;;;;;13.00;9.52;;;6.10;96.70;;;;;;5057121;28;20368;-72
2021/01/08 00:50:15;;;;;;;14.43;10.15;;;6.10;96.70;;;;;;5061394;28;20414;-71
2021/01/08 00:52:42;;;;;;;13.05;10.27;;;6.10;96.70;;;;;;5059618;28;20120;-72
2021/01/08 00:55:11;;;;;;;14.38;9.05;;;6.10;96.70;;;;;;5059260;28;20078;-72
2021/01/08 00:57:49;;;;;;;12.10;8.15;;;6.10;96.70;;;;;;5057091;28;20048;-71
2021/01/08 01:00:16;;;;;;;11.82;7.85;;;6.10;96.70;;;;;;5077899;28;20474;-72
2021/01/08 01:02:44;;;;;;;11.27;7.63;;;6.10;96.70;;;;;;5044123;28;20036;-72
2021/01/08 01:05:11;;;;;;;11.35;7.53;;;6.10;96.70;;;;;;5056074;28;20064;-72
2021/01/08 01:07:38;;;;;;;11.80;7.70;;;6.10;96.70;;;;;;5058513;28;20053;-72
2021/01/08 01:10:06;;;;;;;9.98;6.93;;;6.00;96.70;;;;;;5042986;28;20438;-71
2021/01/08 01:12:33;;;;;;;11.57;7.82;;;6.00;96.70;;;;;;5060613;28;20036;-71
2021/01/08 01:15:02;;;;;;;9.82;7.32;;;6.00;96.70;;;;;;5056410;28;20040;-71
2021/01/08 01:17:29;;;;;;;8.43;6.63;;;6.00;96.70;;;;;;5059646;28;20052;-72
2021/01/08 01:19:57;;;;;;;10.60;6.85;;;6.00;96.70;;;;;;5057216;28;20264;-72
2021/01/08 01:22:24;;;;;;;10.00;6.28;;;6.10;96.70;;;;;;5057434;28;20124;-72
2021/01/08 01:24:51;;;;;;;8.52;6.60;;;6.10;96.70;;;;;;5058839;28;20536;-71
2021/01/08 01:27:21;;;;;;;8.30;6.10;;;6.10;96.70;;;;;;5057157;28;20318;-71
2021/01/08 01:29:48;;;;;;;9.30;6.45;;;6.10;96.70;;;;;;5055530;28;20099;-71
2021/01/08 01:32:17;;;;;;;9.68;5.97;;;6.10;96.70;;;;;;5059089;28;20042;-71
2021/01/08 01:34:44;;;;;;;8.18;6.53;;;6.10;96.70;;;;;;5072042;28;20356;-71
2021/01/08 01:37:11;;;;;;;9.18;5.82;;;6.10;96.70;;;;;;5059764;28;20041;-71
2021/01/08 01:39:39;;;;;;;9.75;5.90;;;6.00;96.70;;;;;;5056490;28;20036;-72
2021/01/08 01:42:06;;;;;;;8.32;5.70;;;6.00;96.70;;;;;;5056256;28;20060;-72
2021/01/08 01:44:33;;;;;;;7.88;5.80;;;6.10;96.70;;;;;;5057825;28;20450;-71
2021/01/08 01:47:00;;;;;;;9.52;5.97;;;6.10;96.70;;;;;;5058875;28;20095;-72
2021/01/08 01:49:29;;;;;;;7.55;5.88;;;6.10;96.70;;;;;;5059160;28;20055;-71
2021/01/08 01:51:58;;;;;;;9.40;6.70;;;6.00;96.70;;;;;;5057359;28;20064;-72
2021/01/08 01:54:25;;;;;;;9.57;6.20;;;6.10;96.70;;;;;;5055224;28;20044;-72
2021/01/08 01:56:52;;;;;;;11.10;6.47;;;6.00;96.70;;;;;;5041599;28;20049;-72
2021/01/08 01:59:19;;;;;;;8.00;6.13;;;6.00;96.70;;;;;;5058374;28;20071;-71
2021/01/08 02:01:47;;;;;;;8.20;6.20;;;5.80;96.70;;;;;;5060447;28;20135;-72
2021/01/08 02:04:16;;;;;;;7.90;6.47;;;5.90;96.70;;;;;;5057610;28;20051;-75
2021/01/08 02:06:47;;;;;;;8.63;6.97;;;6.00;96.70;;;;;;5061324;28;20051;-75
2021/01/08 02:09:15;;;;;;;9.18;6.93;;;6.00;96.70;;;;;;5056633;28;20706;-75
2021/01/08 02:11:47;;;;;;;10.68;7.03;;;6.10;96.70;;;;;;5060413;28;20053;-74
2021/01/08 02:14:18;;;;;;;12.45;8.38;;;6.10;96.70;;;;;;5056325;28;20409;-76
2021/01/08 02:16:48;;;;;;;10.68;8.25;;;6.00;96.70;;;;;;5055593;28;20139;-75
2021/01/08 02:19:21;;;;;;;14.85;10.68;;;5.90;96.70;;;;;;5057854;28;20052;-75
2021/01/08 02:21:54;;;;;;;15.02;10.55;;;5.70;96.70;;;;;;5059705;28;20040;-75
2021/01/08 02:24:27;;;;;;;13.93;9.23;;;5.60;96.70;;;;;;5040270;28;20048;-75
2021/01/08 02:26:56;;;;;;;13.90;10.02;;;5.60;96.70;;;;;;5057773;28;20510;-75
2021/01/08 02:29:24;;;;;;;13.07;10.20;;;5.60;96.70;;;;;;5070322;28;20036;-76
2021/01/08 02:31:52;;;;;;;18.10;12.43;;;5.60;96.70;;;;;;5054041;28;20047;-75
2021/01/08 02:34:20;;;;;;;16.95;11.77;;;5.50;96.70;;;;;;5058179;28;20095;-75
2021/01/08 02:36:49;;;;;;;19.15;12.75;;;5.50;96.70;;;;;;5056264;28;20071;-76
2021/01/08 02:39:16;;;;;;;18.88;13.05;;;5.50;96.70;;;;;;5063337;28;20081;-75
2021/01/08 02:41:46;;;;;;;18.50;12.77;;;5.40;96.70;;;;;;5058835;28;20132;-76
2021/01/08 02:44:15;;;;;;;17.20;12.60;;;5.50;96.70;;;;;;5055680;28;20040;-75
2021/01/08 02:46:42;;;;;;;20.30;13.18;;;5.60;96.70;;;;;;5056545;28;20048;-76
2021/01/08 02:49:10;;;;;;;21.23;14.38;;;5.70;96.70;;;;;;5061476;28;20037;-76
2021/01/08 02:51:38;;;;;;;18.83;12.63;;;5.80;96.70;;;;;;5059357;28;20456;-76
2021/01/08 02:54:07;;;;;;;20.02;14.05;;;5.90;96.70;;;;;;5058317;28;20041;-76
2021/01/08 02:56:39;;;;;;;16.55;12.43;;;5.90;96.70;;;;;;5055411;28;20044;-76
2021/01/08 02:59:08;;;;;;;18.35;14.23;;;5.80;96.70;;;;;;5039101;28;20045;-75
2021/01/08 03:01:37;;;;;;;17.10;12.75;;;5.80;96.70;;;;;;5056746;28;20094;-76
2021/01/08 03:04:06;;;;;;;17.20;12.65;;;5.90;96.70;;;;;;5057872;28;20048;-76
2021/01/08 03:06:34;;;;;;;17.02;12.38;;;6.00;96.70;;;;;;5058008;28;20142;-75
2021/01/08 03:09:02;;;;;;;19.50;12.80;;;6.00;96.70;;;;;;5057832;28;20040;-75
2021/01/08 03:11:30;;;;;;;20.40;13.63;;;6.00;96.70;;;;;;5056545;28;20036;-75
2021/01/08 03:13:57;;;;;;;20.45;13.80;;;6.00;96.70;;;;;;5063150;28;20107;-76
2021/01/08 03:16:24;;;;;;;21.13;12.98;;;6.00;96.70;;;;;;5046306;28;20195;-76
2021/01/08 03:18:52;;;;;;;20.42;12.63;;;6.00;96.70;;;;;;5057213;28;20052;-76
2021/01/08 03:21:19;;;;;;;14.23;9.77;;;6.00;96.70;;;;;;5057409;28;20043;-76
2021/01/08 03:23:47;;;;;;;15.50;9.45;;;6.00;96.70;;;;;;5058170;28;20040;-76
2021/01/08 03:26:14;;;;;;;13.75;9.93;;;6.00;96.70;;;;;;5055327;28;20459;-75
2021/01/08 03:28:41;;;;;;;12.38;8.38;;;6.00;96.70;;;;;;5046791;28;20135;-75
2021/01/08 03:31:08;;;;;;;13.65;8.45;;;5.90;96.70;;;;;;5054497;28;20041;-76
2021/01/08 03:33:35;;;;;;;11.25;7.90;;;6.00;96.70;;;;;;5056915;28;20044;-76
2021/01/08 03:36:04;;;;;;;11.13;7.57;;;5.90;96.70;;;;;;5057601;28;20126;-76
2021/01/08 03:38:31;;;;;;;9.77;7.75;;;5.90;96.70;;;;;;5058183;28;20041;-75
2021/01/08 03:41:00;;;;;;;11.20;8.70;;;5.90;96.70;;;;;;5071642;28;20086;-76
2021/01/08 03:43:27;;;;;;;12.40;8.18;;;5.80;96.70;;;;;;5057411;28;20445;-75
2021/01/08 03:45:54;;;;;;;12.25;8.40;;;5.90;96.70;;;;;;5056752;28;20037;-76
2021/01/08 03:48:22;;;;;;;10.88;8.57;;;5.80;96.70;;;;;;5065810;28;20048;-76
2021/01/08 03:50:49;;;;;;;13.00;9.70;;;5.80;96.70;;;;;;5058651;28;20460;-75
2021/01/08 03:53:17;;;;;;;9.88;8.13;;;5.90;96.70;;;;;;5075924;28;20044;-76
2021/01/08 03:55:44;;;;;;;13.00;9.73;;;5.90;96.70;;;;;;5058150;28;20068;-76
2021/01/08 03:58:11;;;;;;;10.98;8.60;;;5.90;96.70;;;;;;5061318;28;20052;-75
2021/01/08 04:00:38;;;;;;;13.65;9.10;;;5.90;96.70;;;;;;5062861;28;20415;-75
2021/01/08 04:03:06;;;;;;;11.60;8.85;;;5.90;96.70;;;;;;5074527;28;20052;-75
2021/01/08 04:05:33;;;;;;;13.35;9.18;;;5.90;96.70;;;;;;5056831;28;20334;-76
2021/01/08 04:08:00;;;;;;;11.23;8.38;;;5.90;96.70;;;;;;5077759;28;20051;-75
2021/01/08 04:10:28;;;;;;;10.38;8.38;;;5.90;96.70;;;;;;5076189;28;20468;-75
2021/01/08 04:12:55;;;;;;;12.32;9.13;;;5.90;96.70;;;;;;5062484;28;20490;-75
2021/01/08 04:15:22;;;;;;;12.10;9.10;;;5.90;96.70;;;;;;5065138;28;20540;-75
2021/01/08 04:17:49;;;;;;;11.05;8.35;;;5.90;96.70;;;;;;5060343;28;20752;-75
2021/01/08 04:20:17;;;;;;;11.90;8.57;;;5.90;96.70;;;;;;5076975;28;20086;-75
2021/01/08 04:22:44;;;;;;;12.00;8.25;;;5.80;96.70;;;;;;5059427;28;20042;-75
2021/01/08 04:25:12;;;;;;;13.35;8.70;;;5.80;96.70;;;;;;5064884;28;20391;-76
2021/01/08 04:27:40;;;;;;;13.45;8.45;;;5.80;96.70;;;;;;5056691;28;20098;-75
2021/01/08 04:30:08;;;;;;;13.50;8.15;;;5.80;96.70;;;;;;5060033;28;20521;-76
2021/01/08 04:32:35;;;;;;;12.43;8.43;;;5.80;96.70;;;;;;5074747;28;20125;-71
2021/01/08 04:35:03;;;;;;;12.27;8.70;;;5.80;96.70;;;;;;5062987;28;20041;-70
2021/01/08 04:37:30;;;;;;;11.25;7.97;;;5.80;96.70;;;;;;5057506;28;20041;-71
2021/01/08 04:39:57;;;;;;;11.07;8.57;;;5.80;96.70;;;;;;5061233;28;20431;-72
2021/01/08 04:42:25;;;;;;;12.02;8.45;;;5.80;96.70;;;;;;5059769;28;20118;-72
2021/01/08 04:44:53;;;;;;;11.70;8.25;;;5.70;96.70;;;;;;5060418;28;20040;-72
2021/01/08 04:47:22;;;;;;;11.20;8.05;;;5.70;96.70;;;;;;5056394;28;20040;-72
2021/01/08 04:49:50;;;;;;;13.57;8.55;;;5.70;96.70;;;;;;5055774;28;20398;-70
2021/01/08 04:52:19;;;;;;;11.48;7.65;;;5.70;96.70;;;;;;5057882;28;20029;-71
2021/01/08 04:54:47;;;;;;;13.15;8.98;;;5.70;96.70;;;;;;5060773;28;20032;-71
2021/01/08 04:57:16;;;;;;;11.20;8.02;;;5.70;96.70;;;;;;5059375;28;20522;-72
2021/01/08 04:59:44;;;;;;;12.98;8.38;;;5.80;96.70;;;;;;5059617;28;20184;-71
2021/01/08 05:02:12;;;;;;;10.48;7.93;;;5.70;96.70;;;;;;5055333;28;20524;-71
2021/01/08 05:04:39;;;;;;;11.82;8.77;;;5.70;96.70;;;;;;5061145;28;20037;-71
2021/01/08 05:07:07;;;;;;;10.57;8.30;;;5.60;96.70;;;;;;5054347;28;20522;-71
2021/01/08 05:09:34;;;;;;;10.45;8.27;;;5.60;96.70;;;;;;5060387;28;20048;-71
2021/01/08 05:12:02;;;;;;;11.60;8.25;;;5.60;96.70;;;;;;5059364;28;20501;-72
2021/01/08 05:14:29;;;;;;;12.23;8.57;;;5.60;96.70;;;;;;5058622;28;20502;-71
2021/01/08 05:16:56;;;;;;;13.75;8.02;;;5.60;96.70;;;;;;5057871;28;20137;-71
2021/01/08 05:19:25;;;;;;;10.32;7.55;;;5.60;96.70;;;;;;5060512;28;20036;-71
2021/01/08 05:21:53;;;;;;;10.10;7.32;;;5.60;96.70;;;;;;5058907;28;20055;-72
2021/01/08 05:24:22;;;;;;;11.73;8.45;;;5.70;96.70;;;;;;5057936;28;20394;-71
2021/01/08 05:26:50;;;;;;;11.40;9.30;;;5.60;96.70;;;;;;5069288;28;20049;-72
2021/01/08 05:29:17;;;;;;;9.30;7.30;;;5.50;96.70;;;;;;5057401;28;20041;-71
2021/01/08 05:31:47;;;;;;;11.43;8.52;;;5.50;96.70;;;;;;5054926;28;20076;-71
2021/01/08 05:34:26;;;;;;;11.23;8.68;;;5.50;96.70;;;;;;5063261;28;20080;-71
2021/01/08 05:36:54;;;;;;;12.02;8.45;;;5.50;96.70;;;;;;5058538;28;20234;-71
2021/01/08 05:39:21;;;;;;;10.65;8.13;;;5.50;96.70;;;;;;5057396;28;20040;-71
2021/01/08 05:41:49;;;;;;;10.57;8.43;;;5.40;96.70;;;;;;5058069;28;20048;-72
2021/01/08 05:44:17;;;;;;;11.80;8.38;;;5.40;96.70;;;;;;5057352;28;20059;-71
2021/01/08 05:46:48;;;;;;;12.45;8.50;;;5.40;96.70;;;;;;5057778;28;20056;-71
2021/01/08 05:49:17;;;;;;;9.50;7.15;;;5.40;96.70;;;;;;5057744;28;20044;-71
2021/01/08 05:51:45;;;;;;;11.65;7.75;;;5.40;96.70;;;;;;5057437;28;20482;-71
2021/01/08 05:54:14;;;;;;;12.05;8.30;;;5.40;96.70;;;;;;5053640;28;20586;-71
2021/01/08 05:56:41;;;;;;;11.25;9.00;;;5.50;96.70;;;;;;5055861;28;20048;-72
2021/01/08 05:59:09;;;;;;;13.57;9.55;;;5.40;96.70;;;;;;5055384;28;20045;-71
2021/01/08 06:01:38;;;;;;;10.52;8.35;;;5.30;96.70;;;;;;5057817;28;20484;-71
2021/01/08 06:04:07;;;;;;;8.90;7.47;;;5.10;96.70;;;;;;5062028;28;20048;-71
2021/01/08 06:06:40;;;;;;;11.77;8.55;;;5.00;96.70;;;;;;5057973;28;20051;-71
2021/01/08 06:09:11;;;;;;;10.55;7.32;;;4.90;96.70;;;;;;5057618;28;20436;-71
2021/01/08 06:11:43;;;;;;;13.10;8.20;;;4.90;96.70;;;;;;5062813;28;20514;-71
2021/01/08 06:14:12;;;;;;;9.88;7.40;;;4.90;96.70;;;;;;5055489;28;20494;-70
2021/01/08 06:16:42;;;;;;;12.60;8.40;;;4.90;96.70;;;;;;5057013;28;20123;-70
2021/01/08 06:19:12;;;;;;;9.73;7.78;;;4.90;96.70;;;;;;5060901;28;20047;-71
2021/01/08 06:21:42;;;;;;;13.60;9.68;;;4.90;96.70;;;;;;5059484;28;20047;-72
2021/01/08 06:24:13;;;;;;;13.68;10.30;;;4.90;96.70;;;;;;5053750;28;20044;-71
2021/01/08 06:26:41;;;;;;;12.52;9.52;;;4.90;96.70;;;;;;5055833;28;20047;-71
2021/01/08 06:29:16;;;;;;;14.65;9.65;;;4.90;96.70;;;;;;5041270;28;20048;-70
2021/01/08 06:31:48;;;;;;;12.43;8.15;;;4.90;96.70;;;;;;5056735;28;20592;-71
2021/01/08 06:34:22;;;;;;;15.10;8.68;;;4.90;96.70;;;;;;5056942;28;20048;-71
2021/01/08 06:37:06;;;;;;;10.07;8.13;;;4.80;96.70;;;;;;5057938;28;20043;-71
2021/01/08 06:39:36;;;;;;;12.38;7.53;;;4.80;96.70;;;;;;5066261;28;20045;-71
2021/01/08 06:42:04;;;;;;;11.75;7.60;;;4.80;96.70;;;;;;5056071;28;20158;-71
2021/01/08 06:44:32;;;;;;;11.82;7.82;;;4.70;96.70;;;;;;5058692;28;20601;-71
2021/01/08 06:47:01;;;;;;;10.20;7.55;;;4.70;96.70;;;;;;5058235;28;20033;-71
2021/01/08 06:49:31;;;;;;;10.77;8.05;;;4.70;96.70;;;;;;5057165;28;20048;-71
2021/01/08 06:52:00;;;;;;;11.38;8.05;;;4.60;96.70;;;;;;5055063;28;20368;-71
2021/01/08 06:54:28;;;;;;;14.52;8.98;;;4.60;96.70;;;;;;5070152;28;20040;-70
2021/01/08 06:57:00;;;;;;;12.43;9.13;;;4.60;96.70;;;;;;5056870;28;20036;-71
2021/01/08 06:59:32;;;;;;;12.98;8.48;;;4.50;96.70;;;;;;5056653;28;20118;-71
2021/01/08 07:02:10;;;;;;;12.63;8.68;;;4.50;96.70;;;;;;5057706;28;20445;-72
2021/01/08 07:04:39;;;;;;;13.70;8.45;;;4.50;96.70;;;;;;5053727;28;20086;-72
2021/01/08 07:07:12;;;;;;;13.02;8.20;;;4.60;96.70;;;;;;5054311;28;20110;-73
2021/01/08 07:10:09;;;;;;;12.30;8.32;;;4.60;96.70;;;;;;5074595;28;20041;-73
2021/01/08 07:13:23;;;;;;;13.43;9.10;;;4.70;96.70;;;;;;4896827;29;20048;-72
2021/01/08 07:16:34;;;;;;;12.38;8.98;;;4.50;96.70;;;;;;4765889;29;20549;-73
2021/01/08 07:19:32;;;;;;;14.02;9.68;;;4.50;96.70;;;;;;4741327;30;20057;-72
2021/01/08 07:22:01;;;;;;;14.23;9.60;;;4.60;96.70;;;;;;5207965;22;20081;-75
2021/01/08 07:24:31;;;;;;;16.23;10.05;;;4.60;96.70;;;;;;5041488;28;20486;-75
2021/01/08 07:27:16;;;;;;;15.57;9.80;;;4.60;96.70;;;;;;5048424;28;20488;-76
2021/01/08 07:29:50;;;;;;;15.02;9.35;;;4.60;96.70;;;;;;5057342;28;20631;-76
2021/01/08 07:32:30;;;;;;;14.70;8.70;;;4.50;96.70;;;;;;5074643;28;20463;-76
2021/01/08 07:34:59;;;;;;;14.30;9.23;;;4.60;96.70;;;;;;5061101;28;20115;-76
2021/01/08 07:37:56;;;;;;;13.63;9.80;;;4.60;96.70;;;;;;5041072;28;20474;-76
2021/01/08 07:40:24;;;;;;;17.17;10.15;;;4.60;96.70;;;;;;5060356;28;20311;-76
2021/01/08 07:42:56;;;;;;;17.48;10.20;;;4.70;96.70;;;;;;5060792;28;20559;-75
2021/01/08 07:45:23;;;;;;;15.48;10.93;;;4.80;96.70;;;;;;5062269;28;20119;-75
2021/01/08 07:47:51;;;;;;;17.20;10.05;;;4.80;96.70;;;;;;5056262;28;20044;-76
2021/01/08 07:50:19;;;;;;;16.38;10.32;;;4.90;96.70;;;;;;5054306;28;20125;-76
2021/01/08 07:52:47;;;;;;;17.45;10.60;;;4.90;96.70;;;;;;5062070;28;20094;-76
2021/01/08 07:55:45;;;;;;;12.43;9.38;;;4.90;96.70;;;;;;5060963;28;20055;-75
2021/01/08 07:58:13;;;;;;;16.00;9.55;;;5.00;96.70;;;;;;5060424;28;20064;-75
2021/01/08 08:00:42;;;;;;;14.98;10.00;;;5.10;96.70;;;;;;5058092;28;20041;-75
2021/01/08 08:03:13;;;;;;;17.45;9.50;;;5.10;96.70;;;;;;5045230;28;20060;-75
2021/01/08 08:05:44;;;;;;;12.23;8.27;;;5.20;96.70;;;;;;5042250;28;20045;-75
2021/01/08 08:08:11;;;;;;;10.70;7.40;;;5.20;96.70;;;;;;5060730;28;20237;-75
2021/01/08 08:10:40;;;;;;;14.15;8.40;;;5.20;96.70;;;;;;5061471;28;20083;-76
2021/01/08 08:13:08;;;;;;;13.45;8.68;;;5.20;96.70;;;;;;5033192;28;20148;-76
2021/01/08 08:15:45;;;;;;;14.90;8.40;;;5.40;96.70;;;;;;5069258;28;20546;-76
2021/01/08 08:18:14;;;;;;;15.10;7.75;;;5.40;96.70;;;;;;5066727;28;20620;-76
2021/01/08 08:20:42;;;;;;;11.40;7.82;;;5.50;96.70;;;;;;5058500;28;20039;-76
2021/01/08 08:23:17;;;;;;;10.70;7.25;;;5.50;96.70;;;;;;5071177;28;20053;-76
2021/01/08 08:25:45;;;;;;;11.50;7.30;;;5.50;96.70;;;;;;5061539;28;20067;-72
2021/01/08 08:28:12;;;;;;;14.02;8.25;;;5.60;96.70;;;;;;5059064;28;20440;-73
2021/01/08 08:30:40;;;;;;;13.63;8.65;;;5.60;96.70;;;;;;5052387;28;20333;-72
2021/01/08 08:33:07;;;;;;;14.88;8.45;;;5.70;96.70;;;;;;5055863;28;20040;-72
2021/01/08 08:35:42;;;;;;;14.65;8.40;;;5.80;96.70;;;;;;5058276;28;20049;-72
2021/01/08 08:38:10;;;;;;;12.85;8.40;;;5.90;96.70;;;;;;5075142;28;20044;-73
2021/01/08 08:40:37;;;;;;;13.75;7.95;;;5.90;96.70;;;;;;5056353;28;20142;-71
2021/01/08 08:43:04;;;;;;;15.27;9.18;;;6.00;96.70;;;;;;5058288;28;20052;-71
2021/01/08 08:45:33;;;;;;;13.73;8.25;;;6.10;96.70;;;;;;5040214;28;20429;-71
2021/01/08 08:48:05;;;;;;;13.65;8.55;;;6.10;96.70;;;;;;5060894;28;20564;-71
2021/01/08 08:50:34;;;;;;;13.77;7.75;;;6.10;96.70;;;;;;5073500;28;20067;-72
2021/01/08 08:53:11;;;;;;;13.50;7.85;;;6.20;96.70;;;;;;5057832;28;20035;-71
2021/01/08 08:55:39;;;;;;;11.98;7.35;;;6.30;96.70;;;;;;5043841;28;20044;-71
2021/01/08 08:58:08;;;;;;;11.80;7.65;;;6.40;96.70;;;;;;5040952;28;20392;-73
2021/01/08 09:00:36;;;;;;;12.15;7.80;;;6.40;96.70;;;;;;5058149;28;21010;-72
2021/01/08 09:03:19;;;;;;;16.83;8.90;;;6.60;96.70;;;;;;5057308;28;20072;-72
2021/01/08 09:05:48;;;;;;;14.70;8.95;;;6.60;96.70;;;;;;5035504;28;20520;-72
2021/01/08 09:08:20;;;;;;;17.40;8.93;;;6.70;96.70;;;;;;5058544;28;20098;-72
2021/01/08 09:10:51;;;;;;;14.43;8.60;;;6.70;96.70;;;;;;5057629;28;20048;-73
2021/01/08 09:13:30;;;;;;;13.63;8.90;;;6.80;96.70;;;;;;5058886;28;20036;-72
2021/01/08 09:16:03;;;;;;;12.93;8.30;;;6.90;96.70;;;;;;5060907;28;20032;-72
2021/01/08 09:18:38;;;;;;;13.35;9.20;;;6.90;96.70;;;;;;5059402;28;20040;-73
2021/01/08 09:21:12;;;;;;;18.95;10.55;;;7.00;96.70;;;;;;5056366;28;20119;-72
2021/01/08 09:23:46;;;;;;;17.38;9.60;;;7.00;96.70;;;;;;5059068;28;20461;-72
2021/01/08 09:26:18;;;;;;;15.63;9.63;;;7.10;96.70;;;;;;5050229;28;20048;-72
2021/01/08 09:28:47;;;;;;;13.98;9.60;;;7.20;96.70;;;;;;5059685;28;20578;-73
2021/01/08 09:31:15;;;;;;;16.63;10.10;;;7.30;96.70;;;;;;5058134;28;20504;-73
2021/01/08 09:33:54;;;;;;;19.25;11.95;;;7.30;96.70;;;;;;5060460;28;20119;-72
2021/01/08 09:36:29;;;;;;;20.58;12.27;;;7.40;96.70;;;;;;5057632;28;20041;-72
2021/01/08 09:39:00;;;;;;;21.05;11.68;;;7.40;96.70;;;;;;5058316;28;20040;-71
2021/01/08 09:41:29;;;;;;;19.35;11.98;;;7.50;96.70;;;;;;5056408;28;20147;-72
2021/01/08 09:44:03;;;;;;;17.92;11.23;;;7.50;96.70;;;;;;5056155;28;20098;-72
2021/01/08 09:46:32;;;;;;;17.27;10.82;;;7.60;96.70;;;;;;5055123;28;20040;-72
2021/01/08 09:49:06;;;;;;;19.75;11.30;;;7.70;96.70;;;;;;5042968;28;20125;-72
2021/01/08 09:51:33;;;;;;;18.30;10.70;;;7.70;96.70;;;;;;5052813;28;20140;-72
2021/01/08 09:54:02;;;;;;;21.20;11.95;;;7.80;96.70;;;;;;5058267;28;20105;-72
2021/01/08 09:56:29;;;;;;;19.25;10.98;;;7.80;96.70;;;;;;5055580;28;20045;-72
2021/01/08 09:59:13;;;;;;;21.90;12.43;;;7.90;96.70;;;;;;5059972;28;20036;-72
2021/01/08 10:01:51;;;;;;;19.55;11.50;;;8.00;96.70;;;;;;5058708;28;20045;-72
2021/01/08 10:04:28;;;;;;;17.90;10.85;;;8.10;96.70;;;;;;5058360;28;20445;-72
2021/01/08 10:06:57;;;;;;;18.27;11.05;;;8.20;96.70;;;;;;5057891;28;20040;-72
2021/01/08 10:09:25;;;;;;;17.00;10.95;;;8.30;96.70;;;;;;5058630;28;20040;-72
2021/01/08 10:12:01;;;;;;;19.58;10.73;;;8.30;96.70;;;;;;5059385;28;20516;-72
2021/01/08 10:14:30;;;;;;;18.38;11.32;;;8.30;96.70;;;;;;5059234;28;20151;-72
2021/01/08 10:17:13;;;;;;;19.27;11.35;;;8.40;96.70;;;;;;5058194;28;20041;-72
2021/01/08 10:19:43;;;;;;;16.52;10.50;;;8.50;96.70;;;;;;5050552;28;20096;-72
2021/01/08 10:22:10;;;;;;;15.75;10.60;;;8.50;96.70;;;;;;5042385;28;20436;-72
2021/01/08 10:24:38;;;;;;;14.60;9.70;;;8.60;96.70;;;;;;5058212;28;20517;-73
2021/01/08 10:27:06;;;;;;;13.82;9.20;;;8.70;96.70;;;;;;5055507;28;20060;-72
2021/01/08 10:29:35;;;;;;;13.77;9.05;;;8.70;96.70;;;;;;5054978;28;20773;-71
2021/01/08 10:32:07;;;;;;;16.50;9.27;;;8.80;96.70;;;;;;5041949;28;20048;-72
2021/01/08 10:34:38;;;;;;;14.88;9.65;;;8.90;96.70;;;;;;5057761;28;20040;-72
2021/01/08 10:37:13;;;;;;;14.32;9.00;;;9.00;96.70;;;;;;5054059;28;20040;-72
2021/01/08 10:39:41;;;;;;;12.52;8.93;;;9.00;96.70;;;;;;5057134;28;20059;-71
2021/01/08 10:42:09;;;;;;;15.32;8.73;;;9.10;96.70;;;;;;5054880;28;20045;-72
2021/01/08 10:44:42;;;;;;;16.25;10.13;;;9.20;96.70;;;;;;5056902;28;20040;-72
2021/01/08 10:47:10;;;;;;;11.48;8.40;;;9.20;96.70;;;;;;5036605;28;20397;-72
2021/01/08 10:49:59;;;;;;;13.82;9.00;;;9.30;96.70;;;;;;5054784;28;20049;-72
2021/01/08 10:52:27;;;;;;;16.38;9.88;;;9.20;96.70;;;;;;5056478;28;20045;-72
2021/01/08 10:54:55;;;;;;;11.95;8.45;;;9.30;96.70;;;;;;5041082;28;20079;-76
2021/01/08 10:57:23;;;;;;;14.48;9.15;;;9.40;96.70;;;;;;5056195;28;20538;-76
2021/01/08 10:59:50;;;;;;;16.17;9.05;;;9.40;96.70;;;;;;5040299;28;20513;-75
2021/01/08 11:02:18;;;;;;;11.07;7.85;;;9.50;96.70;;;;;;5072032;28;20512;-76
2021/01/08 11:04:46;;;;;;;12.52;8.00;;;9.60;96.70;;;;;;5056713;28;20555;-75
2021/01/08 11:07:14;;;;;;;10.75;7.60;;;9.50;96.70;;;;;;5058255;28;20048;-76
2021/01/08 11:09:41;;;;;;;12.85;8.73;;;9.50;96.70;;;;;;5057473;28;20126;-76
2021/01/08 11:12:11;;;;;;;12.45;8.07;;;9.50;96.70;;;;;;5038516;28;20041;-76
2021/01/08 11:14:38;;;;;;;11.20;7.53;;;9.50;96.70;;;;;;5055368;28;20036;-76
2021/01/08 11:17:06;;;;;;;14.15;8.52;;;9.60;96.70;;;;;;5059064;28;20145;-76
2021/01/08 11:19:33;;;;;;;10.43;6.78;;;9.60;96.70;;;;;;5056781;28;20187;-76
2021/01/08 11:22:01;;;;;;;11.55;7.35;;;9.70;96.70;;;;;;5057685;28;20795;-75
2021/01/08 11:24:28;;;;;;;10.38;7.13;;;9.70;96.70;;;;;;5056548;28;20044;-76
2021/01/08 11:26:56;;;;;;;12.93;7.75;;;9.70;96.70;;;;;;5054839;28;20138;-76
2021/01/08 11:29:24;;;;;;;11.70;7.53;;;9.80;96.70;;;;;;5057595;28;20044;-76
2021/01/08 11:31:51;;;;;;;13.10;7.32;;;9.80;96.70;;;;;;5054719;28;20156;-76
2021/01/08 11:34:19;;;;;;;12.80;8.00;;;10.00;96.70;;;;;;5056836;28;20053;-76
2021/01/08 11:36:46;;;;;;;11.23;7.15;;;10.10;96.70;;;;;;5035785;28;20520;-76
2021/01/08 11:39:15;;;;;;;12.60;7.75;;;10.10;96.70;;;;;;5057585;28;20133;-75
2021/01/08 11:41:42;;;;;;;11.25;7.40;;;10.20;96.30;;;;;;5055144;28;20032;-75
2021/01/08 11:44:09;;;;;;;11.48;7.10;;;10.20;94.90;;;;;;5045928;28;20462;-76
2021/01/08 11:46:38;;;;;;;11.05;7.32;;;10.20;94.60;;;;;;5055274;28;20048;-76
2021/01/08 11:49:05;;;;;;;10.43;7.15;;;10.30;95.50;;;;;;5058338;28;20496;-76
2021/01/08 11:51:33;;;;;;;11.85;7.22;;;10.30;95.60;;;;;;5033993;28;20041;-75
2021/01/08 11:54:00;;;;;;;10.13;7.15;;;10.40;95.70;;;;;;5059255;28;20133;-75
2021/01/08 11:56:29;;;;;;;9.65;6.75;;;10.50;95.70;;;;;;5030158;28;20053;-76
2021/01/08 11:58:57;;;;;;;9.90;6.28;;;10.60;95.10;;;;;;5054394;28;20410;-76
2021/01/08 12:01:25;;;;;;;10.32;6.57;;;10.60;94.10;;;;;;5056745;28;20054;-76
2021/01/08 12:03:54;;;;;;;9.13;6.10;;;10.60;93.90;;;;;;5055254;28;20045;-76
2021/01/08 12:06:27;;;;;;;8.95;6.28;;;10.60;94.00;;;;;;5057931;28;20148;-76
2021/01/08 12:08:55;;;;;;;10.48;6.53;;;10.70;94.40;;;;;;5055931;28;20132;-76
2021/01/08 12:11:24;;;;;;;9.48;6.60;;;10.90;93.70;;;;;;5058634;28;20120;-76
2021/01/08 12:13:51;;;;;;;9.65;6.32;;;11.10;94.10;;;;;;5060034;28;20508;-76
2021/01/08 12:16:28;;;;;;;9.65;5.93;;;11.20;93.60;;;;;;5057563;28;20033;-76
2021/01/08 12:18:57;;;;;;;5.88;4.15;;;11.20;93.00;;;;;;5043978;28;20052;-76
2021/01/08 12:21:24;;;;;;;5.35;3.92;;;11.30;91.60;;;;;;5061459;28;20049;-76
2021/01/08 12:23:52;;;;;;;7.68;4.03;;;11.40;90.90;;;;;;5059728;28;20059;-75
2021/01/08 12:26:20;;;;;;;6.03;4.03;;;11.50;90.20;;;;;;5056921;28;20040;-76
2021/01/08 12:28:49;;;;;;;6.47;4.00;;;11.60;90.30;;;;;;5042139;28;20474;-76
2021/01/08 12:31:23;;;;;;;7.32;3.97;;;11.70;90.20;;;;;;5059043;28;20482;-77
2021/01/08 12:33:51;;;;;;;5.88;4.05;;;11.80;89.40;;;;;;5075930;28;20082;-76
2021/01/08 12:36:19;;;;;;;4.82;3.50;;;11.90;89.60;;;;;;5060467;28;20544;-76
2021/01/08 12:38:47;;;;;;;5.20;3.95;;;11.90;89.40;;;;;;5058698;28;20127;-75
2021/01/08 12:41:16;;;;;;;6.18;4.05;;;12.10;90.40;;;;;;5060357;28;20044;-76
2021/01/08 12:43:45;;;;;;;5.15;3.05;;;12.10;88.10;;;;;;5056984;28;20032;-76
2021/01/08 12:46:18;;;;;;;6.03;3.78;;;12.10;86.70;;;;;;5057281;28;20505;-76
2021/01/08 12:48:45;;;;;;;4.78;3.10;;;12.10;87.90;;;;;;5043654;28;20517;-76
2021/01/08 12:51:14;;;;;;;5.90;3.13;;;12.20;87.40;;;;;;5058068;28;20041;-77
2021/01/08 12:53:43;;;;;;;3.60;2.72;;;12.20;87.20;;;;;;5049857;28;20037;-76
2021/01/08 12:56:15;;;;;;;4.43;2.67;;;12.30;87.50;;;;;;5060318;28;20086;-75
2021/01/08 12:58:42;;;;;;;5.45;3.25;;;12.20;87.50;;;;;;5058080;28;20106;-75